Terminal Aerodrome Forecast
Issued by NWS Twin Cities, MN

Home | Current Version | Previous Version | Text Only | Print | Product List | Glossary On
Versions: 1 2 3 4 5 6 7 8 9 10 11 12 13 14 15
000
FTUS43 KMPX 212300
TAFEAU
TAF
KEAU 212325Z 2200/2224 33009KT P6SM FEW040
     FM220300 VRB03KT P6SM SKC
     FM220900 00000KT 2SM BR SCT007
      TEMPO 2210/2212 1/2SM FG OVC007
     FM221300 27006KT P6SM SKC=

USA.gov is the U.S. government's official web portal to all federal, state and local government web resources and services.